createdAt,value
2019-04-03T00:01:37.488Z,25.27
2019-04-03T00:04:42.768Z,25.43
2019-04-03T00:07:48.044Z,24.27
2019-04-03T00:10:53.274Z,24.63
2019-04-03T00:13:58.574Z,22.20
2019-04-03T00:17:03.857Z,24.07
2019-04-03T00:20:09.195Z,24.40
2019-04-03T00:23:14.553Z,23.27
2019-04-03T00:26:21.813Z,26.33
2019-04-03T00:29:28.314Z,26.80
2019-04-03T00:32:33.674Z,22.07
2019-04-03T00:35:39.041Z,25.20
2019-04-03T00:38:44.433Z,21.77
2019-04-03T00:41:52.874Z,21.80
2019-04-03T00:44:56.802Z,22.90
2019-04-03T00:48:02.119Z,21.43
2019-04-03T00:51:07.387Z,22.60
2019-04-03T00:54:12.673Z,26.23
2019-04-03T00:57:17.924Z,20.77
2019-04-03T01:00:23.222Z,21.50
2019-04-03T01:03:28.740Z,20.07
2019-04-03T01:06:35.063Z,24.13
2019-04-03T01:09:40.377Z,19.77
2019-04-03T01:12:46.904Z,20.97
2019-04-03T01:15:52.498Z,20.27
2019-04-03T01:18:57.787Z,20.90
2019-04-03T01:22:03.124Z,18.80
2019-04-03T01:25:09.372Z,16.53
2019-04-03T01:28:15.039Z,19.70
2019-04-03T01:31:20.301Z,18.13
2019-04-03T01:34:25.607Z,20.27
2019-04-03T01:37:31.038Z,17.00
2019-04-03T01:40:36.416Z,16.30
2019-04-03T01:43:41.664Z,15.83
2019-04-03T01:46:46.989Z,14.73
2019-04-03T01:49:52.294Z,20.50
2019-04-03T01:52:57.816Z,15.90
2019-04-03T01:56:05.086Z,16.73
2019-04-03T01:59:10.075Z,17.93
2019-04-03T02:02:15.319Z,16.00
2019-04-03T02:05:20.742Z,16.87
2019-04-03T02:08:26.108Z,17.10
2019-04-03T02:11:31.528Z,20.00
2019-04-03T02:14:36.864Z,20.33
2019-04-03T02:17:42.301Z,19.03
2019-04-03T02:20:50.558Z,19.13
2019-04-03T02:23:56.102Z,16.53
2019-04-03T02:27:03.117Z,20.00
2019-04-03T02:30:12.346Z,17.87
2019-04-03T02:33:16.577Z,15.07
2019-04-03T02:36:22.013Z,17.20
2019-04-03T02:39:27.735Z,16.40
2019-04-03T02:42:33.885Z,17.33
2019-04-03T02:45:39.238Z,15.87
2019-04-03T02:48:44.534Z,19.40
2019-04-03T02:51:53.270Z,20.47
2019-04-03T02:54:57.221Z,15.47
2019-04-03T02:58:02.721Z,18.90
2019-04-03T03:01:08.748Z,19.77
2019-04-03T03:04:14.142Z,18.10
2019-04-03T03:07:19.964Z,19.70
2019-04-03T03:10:25.884Z,17.87
2019-04-03T03:13:34.471Z,17.83
2019-04-03T03:16:39.334Z,17.70
2019-04-03T03:19:44.787Z,19.60
2019-04-03T03:22:51.154Z,15.73
2019-04-03T03:25:58.238Z,19.90
2019-04-03T03:29:16.563Z,19.53
2019-04-03T03:32:18.849Z,17.67
2019-04-03T03:35:27.903Z,21.17
2019-04-03T03:38:28.138Z,18.70
2019-04-03T03:41:33.766Z,16.60
2019-04-03T03:44:43.219Z,18.00
2019-04-03T03:47:46.696Z,18.97
2019-04-03T03:50:55.507Z,17.57
2019-04-03T03:53:59.822Z,19.10
2019-04-03T03:57:07.271Z,19.30
2019-04-03T04:00:12.555Z,20.33
2019-04-03T04:03:18.083Z,20.73
2019-04-03T04:06:27.926Z,16.83
2019-04-03T04:09:31.050Z,16.23
2019-04-03T04:12:39.822Z,15.47
2019-04-03T04:15:44.963Z,17.67
2019-04-03T04:18:50.997Z,18.60
2019-04-03T04:21:56.758Z,20.37
2019-04-03T04:25:05.349Z,16.13
2019-04-03T04:28:10.715Z,19.00
2019-04-03T04:31:17.978Z,17.20
2019-04-03T04:34:22.956Z,16.13
2019-04-03T04:37:30.048Z,17.10
2019-04-03T04:40:35.573Z,14.93
2019-04-03T04:43:41.111Z,20.80
2019-04-03T04:46:46.327Z,18.00
2019-04-03T04:49:51.757Z,22.53
2019-04-03T04:52:59.399Z,17.00
2019-04-03T04:56:06.581Z,18.27
2019-04-03T04:59:13.986Z,18.20
2019-04-03T05:02:20.224Z,17.17
2019-04-03T05:05:27.201Z,20.77
2019-04-03T05:08:33.587Z,20.30
2019-04-03T05:11:40.242Z,19.40
2019-04-03T05:14:46.860Z,22.33
2019-04-03T05:17:52.625Z,20.77
2019-04-03T05:20:57.956Z,20.43
2019-04-03T05:24:11.487Z,28.53
2019-04-03T05:27:10.456Z,23.40
2019-04-03T05:30:29.224Z,28.03
2019-04-03T05:33:35.497Z,30.13
2019-04-03T05:36:40.806Z,29.20
2019-04-03T05:39:46.033Z,30.97
2019-04-03T05:42:51.410Z,30.93
2019-04-03T05:45:56.652Z,33.63
2019-04-03T05:49:01.923Z,31.40
2019-04-03T05:52:08.125Z,37.00
2019-04-03T05:55:13.518Z,38.03
2019-04-03T05:58:19.001Z,40.13
2019-04-03T06:01:24.492Z,33.97
2019-04-03T06:04:29.921Z,41.53
2019-04-03T06:07:35.353Z,40.10
2019-04-03T06:10:40.720Z,40.60
2019-04-03T06:13:48.051Z,38.00
2019-04-03T06:16:55.521Z,42.83
2019-04-03T06:20:00.137Z,41.40
2019-04-03T06:23:05.482Z,42.13
2019-04-03T06:26:11.097Z,41.47
2019-04-03T06:29:18.441Z,37.00
2019-04-03T06:32:24.834Z,38.50
2019-04-03T06:35:30.420Z,37.53
2019-04-03T06:38:35.772Z,37.97
2019-04-03T06:41:42.080Z,39.73
2019-04-03T06:44:48.086Z,37.90
2019-04-03T06:47:53.376Z,35.50
2019-04-03T06:50:58.701Z,41.70
2019-04-03T06:54:06.941Z,36.27
2019-04-03T06:57:13.332Z,36.43
2019-04-03T07:00:18.015Z,33.93
2019-04-03T07:03:23.237Z,37.97
2019-04-03T07:06:28.877Z,39.03
2019-04-03T07:09:36.706Z,41.27
2019-04-03T07:12:41.255Z,37.93
2019-04-03T07:15:46.771Z,36.70
2019-04-03T07:19:00.272Z,38.03
2019-04-03T07:22:05.648Z,39.67
2019-04-03T07:25:13.582Z,39.00
2019-04-03T07:28:22.066Z,37.30
2019-04-03T07:31:27.487Z,44.17
2019-04-03T07:34:34.266Z,37.10
2019-04-03T07:37:39.969Z,39.83
2019-04-03T07:40:45.427Z,39.23
2019-04-03T07:43:50.704Z,35.73
2019-04-03T07:46:55.973Z,37.07
2019-04-03T07:50:01.262Z,35.30
2019-04-03T07:53:07.815Z,40.00
2019-04-03T07:56:13.352Z,34.90
2019-04-03T07:59:18.822Z,38.30
2019-04-03T08:02:26.901Z,37.97
2019-04-03T08:05:31.692Z,35.83
2019-04-03T08:08:39.584Z,38.07
2019-04-03T08:11:44.986Z,34.83
2019-04-03T08:14:51.255Z,42.53
2019-04-03T08:17:57.815Z,34.77
2019-04-03T08:21:03.307Z,35.50
2019-04-03T08:24:08.689Z,32.13
2019-04-03T08:27:14.178Z,34.50
2019-04-03T08:30:20.056Z,34.03
2019-04-03T08:33:27.471Z,33.20
2019-04-03T08:36:32.949Z,34.43
2019-04-03T08:39:38.304Z,33.97
2019-04-03T08:42:43.714Z,34.43
2019-04-03T08:45:50.679Z,37.93
2019-04-03T08:48:59.519Z,30.87
2019-04-03T08:52:05.657Z,31.93
2019-04-03T08:55:14.154Z,32.00
2019-04-03T08:58:20.974Z,32.83
2019-04-03T09:01:25.556Z,31.80
2019-04-03T09:04:30.846Z,35.60
2019-04-03T09:07:36.095Z,33.57
2019-04-03T09:10:41.370Z,33.90
2019-04-03T09:13:46.614Z,36.23
2019-04-03T09:16:52.007Z,36.50
2019-04-03T09:19:57.453Z,35.70
2019-04-03T09:23:02.757Z,38.70
2019-04-03T09:26:08.044Z,38.77
2019-04-03T09:29:15.458Z,37.00
2019-04-03T09:32:20.903Z,32.27
2019-04-03T09:35:27.654Z,37.67
2019-04-03T09:38:35.315Z,37.77
2019-04-03T09:41:40.105Z,34.77
2019-04-03T09:44:46.461Z,35.17
2019-04-03T09:47:51.857Z,30.80
2019-04-03T09:50:57.139Z,32.43
2019-04-03T09:54:02.491Z,33.80
2019-04-03T09:57:07.742Z,36.80
2019-04-03T10:00:14.820Z,41.27
2019-04-03T10:03:20.856Z,37.10
2019-04-03T10:06:30.389Z,34.07
2019-04-03T10:09:34.218Z,39.33
2019-04-03T10:12:39.499Z,36.37
2019-04-03T10:15:44.799Z,31.77
2019-04-03T10:18:50.272Z,36.10
2019-04-03T10:21:55.630Z,33.57
2019-04-03T10:25:04.851Z,35.97
2019-04-03T10:28:08.000Z,37.47
2019-04-03T10:31:13.265Z,38.17
2019-04-03T10:34:18.526Z,40.83
2019-04-03T10:37:23.751Z,40.20
2019-04-03T10:40:29.115Z,37.60
2019-04-03T10:43:36.651Z,36.60
2019-04-03T10:46:41.466Z,37.40
2019-04-03T10:49:47.082Z,38.10
2019-04-03T10:52:52.530Z,37.30
2019-04-03T10:55:59.685Z,36.20
2019-04-03T10:59:11.519Z,37.20
2019-04-03T11:02:13.640Z,37.37
2019-04-03T11:05:19.368Z,34.23
2019-04-03T11:08:24.776Z,35.10
2019-04-03T11:11:30.246Z,36.60
2019-04-03T11:14:38.513Z,35.20
2019-04-03T11:17:42.943Z,37.57
2019-04-03T11:20:48.265Z,35.60
2019-04-03T11:23:53.694Z,35.03
2019-04-03T11:26:59.217Z,37.30
2019-04-03T11:30:10.991Z,37.70
2019-04-03T11:33:17.515Z,38.10
2019-04-03T11:36:29.551Z,39.63
2019-04-03T11:39:32.534Z,37.17
2019-04-03T11:42:37.912Z,34.83
2019-04-03T11:45:43.342Z,39.20
2019-04-03T11:48:49.183Z,46.53
2019-04-03T11:51:54.693Z,42.43
2019-04-03T11:55:00.269Z,44.97
2019-04-03T11:58:06.072Z,38.87
2019-04-03T12:01:11.933Z,42.90
2019-04-03T12:04:17.635Z,41.53
2019-04-03T12:07:24.744Z,39.77
2019-04-03T12:10:32.821Z,44.60
2019-04-03T12:13:39.213Z,43.67
2019-04-03T12:16:44.873Z,39.00
2019-04-03T12:19:50.219Z,46.80
2019-04-03T12:22:56.963Z,37.20
2019-04-03T12:26:02.486Z,37.50
2019-04-03T12:29:08.388Z,27.53
2019-04-03T12:32:13.945Z,26.53
2019-04-03T12:35:19.623Z,23.23
2019-04-03T12:38:25.036Z,21.90
2019-04-03T12:41:31.957Z,26.43
2019-04-03T12:44:37.398Z,23.40
2019-04-03T12:47:47.704Z,25.30
2019-04-03T12:50:53.322Z,27.03
2019-04-03T12:53:59.966Z,24.07
2019-04-03T12:57:05.577Z,25.77
2019-04-03T13:00:13.482Z,23.90
2019-04-03T13:03:19.445Z,22.80
2019-04-03T13:06:25.031Z,23.23
2019-04-03T13:09:30.666Z,29.83
2019-04-03T13:12:36.113Z,29.47
2019-04-03T13:15:41.468Z,26.83
2019-04-03T13:18:50.582Z,32.37
2019-04-03T13:21:57.013Z,23.33
2019-04-03T13:25:05.388Z,24.30
2019-04-03T13:28:10.683Z,22.90
2019-04-03T13:31:16.349Z,23.30
2019-04-03T13:34:21.945Z,23.50
2019-04-03T13:37:27.736Z,21.00
2019-04-03T13:40:36.425Z,23.60
2019-04-03T13:43:40.756Z,27.27
2019-04-03T13:46:46.292Z,24.37
2019-04-03T13:49:52.059Z,25.73
2019-04-03T13:52:57.457Z,29.40
2019-04-03T13:56:05.338Z,25.60
2019-04-03T13:59:10.795Z,28.10
2019-04-03T14:02:16.224Z,26.23
2019-04-03T14:05:21.965Z,27.23
2019-04-03T14:08:28.853Z,28.63
2019-04-03T14:11:34.313Z,31.97
2019-04-03T14:14:39.923Z,27.37
2019-04-03T14:17:55.156Z,25.27
2019-04-03T14:20:55.298Z,32.67
2019-04-03T14:23:59.389Z,30.60
2019-04-03T14:27:17.158Z,34.20
2019-04-03T14:30:14.419Z,28.70
2019-04-03T14:33:21.280Z,26.07
2019-04-03T14:36:27.456Z,29.50
2019-04-03T14:39:33.209Z,33.87
2019-04-03T14:42:38.673Z,23.07
2019-04-03T14:45:45.191Z,26.20
2019-04-03T14:48:53.253Z,24.67
2019-04-03T14:51:58.787Z,26.00
2019-04-03T14:55:16.587Z,24.73
2019-04-03T14:58:12.049Z,23.27
2019-04-03T15:01:19.868Z,27.17
2019-04-03T15:04:27.469Z,26.93
2019-04-03T15:07:33.042Z,25.90
2019-04-03T15:10:38.538Z,29.33
2019-04-03T15:13:44.256Z,27.73
2019-04-03T15:16:50.005Z,29.10
2019-04-03T15:19:57.069Z,25.50
2019-04-03T15:23:04.804Z,27.87
2019-04-03T15:26:09.278Z,28.30
2019-04-03T15:29:14.697Z,25.17
2019-04-03T15:32:20.478Z,24.97
2019-04-03T15:35:25.885Z,27.27
2019-04-03T15:38:31.196Z,23.57
2019-04-03T15:41:36.999Z,29.40
2019-04-03T15:44:42.507Z,28.83
2019-04-03T15:47:49.687Z,23.20
2019-04-03T15:50:55.495Z,20.13
2019-04-03T15:54:03.818Z,18.03
2019-04-03T15:57:09.129Z,22.33
2019-04-03T16:00:15.702Z,23.67
2019-04-03T16:03:21.255Z,24.63
2019-04-03T16:06:26.622Z,29.27
2019-04-03T16:09:32.328Z,22.20
2019-04-03T16:12:41.502Z,24.47
2019-04-03T16:15:44.742Z,28.67
2019-04-03T16:18:50.571Z,23.00
2019-04-03T16:21:57.659Z,23.63
2019-04-03T16:25:03.699Z,23.20
2019-04-03T16:28:12.936Z,23.30
2019-04-03T16:31:17.980Z,21.20
2019-04-03T16:34:24.367Z,25.50
2019-04-03T16:37:29.986Z,20.53
2019-04-03T16:40:37.783Z,25.23
2019-04-03T16:43:42.674Z,21.63
2019-04-03T16:46:48.077Z,24.80
2019-04-03T16:49:54.843Z,23.73
2019-04-03T16:53:00.691Z,25.40
2019-04-03T16:56:07.061Z,27.23
2019-04-03T16:59:12.812Z,28.10
2019-04-03T17:02:23.897Z,29.60
2019-04-03T17:05:28.901Z,28.20
2019-04-03T17:08:35.137Z,29.67
2019-04-03T17:11:43.501Z,28.97
2019-04-03T17:14:47.537Z,31.67
2019-04-03T17:17:52.829Z,31.33
2019-04-03T17:20:58.439Z,28.83
2019-04-03T17:24:04.993Z,29.63
2019-04-03T17:27:10.560Z,37.70
2019-04-03T17:30:18.346Z,30.67
2019-04-03T17:33:23.503Z,31.77
2019-04-03T17:36:30.466Z,29.67
2019-04-03T17:39:36.265Z,38.47
2019-04-03T17:42:42.151Z,30.20
2019-04-03T17:45:47.654Z,31.30
2019-04-03T17:48:53.712Z,27.07
2019-04-03T17:52:00.138Z,33.13
2019-04-03T17:55:07.873Z,32.33
2019-04-03T17:58:16.449Z,31.17
2019-04-03T18:01:22.200Z,34.37
2019-04-03T18:04:29.078Z,30.57
2019-04-03T18:07:37.032Z,33.27
2019-04-03T18:10:42.575Z,31.30
2019-04-03T18:13:49.560Z,32.27
2019-04-03T18:16:54.834Z,37.80
2019-04-03T18:20:00.170Z,33.27
2019-04-03T18:23:05.566Z,33.20
2019-04-03T18:26:11.022Z,33.50
2019-04-03T18:29:16.368Z,36.60
2019-04-03T18:32:21.791Z,36.07
2019-04-03T18:35:27.221Z,31.37
2019-04-03T18:38:32.682Z,38.83
2019-04-03T18:41:38.073Z,37.67
2019-04-03T18:44:43.507Z,37.00
2019-04-03T18:47:51.032Z,40.23
2019-04-03T18:50:58.105Z,33.17
2019-04-03T18:54:03.816Z,38.13
2019-04-03T18:57:09.338Z,38.13
2019-04-03T19:00:15.131Z,30.97
2019-04-03T19:03:20.616Z,36.67
2019-04-03T19:06:25.947Z,37.90
2019-04-03T19:09:31.453Z,36.47
2019-04-03T19:12:36.905Z,38.37
2019-04-03T19:15:43.486Z,40.50
2019-04-03T19:18:49.234Z,41.37
2019-04-03T19:21:56.666Z,40.20
2019-04-03T19:25:02.127Z,37.83
2019-04-03T19:28:07.502Z,38.30
2019-04-03T19:31:12.809Z,38.90
2019-04-03T19:34:20.258Z,39.43
2019-04-03T19:37:25.137Z,36.27
2019-04-03T19:40:30.573Z,38.67
2019-04-03T19:43:35.896Z,40.80
2019-04-03T19:46:41.204Z,45.43
2019-04-03T19:49:48.027Z,39.07
2019-04-03T19:52:53.586Z,37.70
2019-04-03T19:55:58.882Z,38.77
2019-04-03T19:59:04.954Z,40.40
2019-04-03T20:02:10.427Z,39.60
2019-04-03T20:05:18.655Z,43.80
2019-04-03T20:08:22.990Z,41.10
2019-04-03T20:11:28.479Z,42.23
2019-04-03T20:14:33.813Z,45.03
2019-04-03T20:17:39.142Z,42.30
2019-04-03T20:20:45.527Z,34.50
2019-04-03T20:23:50.859Z,23.47
2019-04-03T20:26:56.256Z,26.50
2019-04-03T20:30:03.151Z,21.87
2019-04-03T20:33:11.421Z,23.07
2019-04-03T20:36:16.790Z,22.10
2019-04-03T20:39:24.402Z,23.03
2019-04-03T20:42:29.696Z,23.80
2019-04-03T20:45:34.995Z,22.87
2019-04-03T20:48:40.307Z,22.00
2019-04-03T20:51:48.447Z,20.57
2019-04-03T20:54:53.175Z,20.00
2019-04-03T20:57:59.151Z,16.73
2019-04-03T21:01:07.313Z,17.20
2019-04-03T21:04:15.456Z,20.53
2019-04-03T21:07:23.746Z,17.47
2019-04-03T21:10:27.825Z,21.77
2019-04-03T21:13:33.138Z,22.50
2019-04-03T21:16:38.444Z,23.03
2019-04-03T21:19:43.765Z,26.50
2019-04-03T21:22:50.082Z,28.73
2019-04-03T21:25:55.396Z,25.40
2019-04-03T21:29:00.694Z,23.77
2019-04-03T21:32:06.231Z,27.30
2019-04-03T21:35:13.263Z,25.23
2019-04-03T21:38:22.578Z,27.00
2019-04-03T21:41:27.845Z,25.10
2019-04-03T21:44:33.131Z,24.80
2019-04-03T21:47:38.525Z,24.20
2019-04-03T21:50:43.737Z,24.40
2019-04-03T21:53:49.033Z,25.60
2019-04-03T21:56:54.336Z,25.67
2019-04-03T21:59:59.560Z,17.60
2019-04-03T22:03:06.817Z,19.13
2019-04-03T22:06:11.921Z,17.60
2019-04-03T22:09:17.252Z,20.40
2019-04-03T22:12:22.730Z,15.37
2019-04-03T22:15:28.036Z,18.47
2019-04-03T22:18:34.655Z,19.77
2019-04-03T22:21:39.967Z,18.00
2019-04-03T22:24:45.273Z,14.90
2019-04-03T22:27:50.511Z,18.20
2019-04-03T22:30:57.209Z,22.30
2019-04-03T22:34:02.491Z,16.23
2019-04-03T22:37:07.862Z,17.77
2019-04-03T22:40:13.430Z,18.73
2019-04-03T22:43:18.701Z,18.80
2019-04-03T22:46:24.092Z,19.37
2019-04-03T22:49:33.584Z,20.40
2019-04-03T22:52:38.057Z,18.17
2019-04-03T22:55:46.401Z,15.17
2019-04-03T22:58:52.865Z,20.97
2019-04-03T23:02:00.685Z,22.90
2019-04-03T23:05:05.980Z,25.80
2019-04-03T23:08:12.196Z,25.97
2019-04-03T23:11:17.526Z,27.93
2019-04-03T23:14:22.825Z,23.60
2019-04-03T23:17:28.246Z,26.30
2019-04-03T23:20:33.585Z,28.37
2019-04-03T23:23:38.951Z,25.57
2019-04-03T23:26:44.192Z,22.20
2019-04-03T23:29:49.416Z,24.20
2019-04-03T23:32:54.730Z,27.10
2019-04-03T23:36:00.070Z,21.07
2019-04-03T23:39:08.000Z,21.40
2019-04-03T23:42:13.273Z,23.80
2019-04-03T23:45:19.435Z,23.63
2019-04-03T23:48:24.732Z,18.30
2019-04-03T23:51:30.212Z,21.73
2019-04-03T23:54:35.721Z,21.80
2019-04-03T23:57:41.111Z,19.37
